Time;durP1;ratioP1;P1;durP2;ratioP2;P2;SDS_P1;SDS_P2;PMS_P1;PMS_P2;Temp;Humidity;BMP_temperature;BMP_pressure;BME280_temperature;BME280_humidity;BME280_pressure;Samples;Min_cycle;Max_cycle;Signal;HPM_P1;HPM_P2
2023/08/02 00:02:06;;;;;;;2.97;1.13;;;15.30;99.90;;;;;;5010673;28;20074;-82
2023/08/02 00:04:32;;;;;;;1.70;1.00;;;15.30;99.90;;;;;;5017442;28;20535;-81
2023/08/02 00:06:57;;;;;;;5.28;1.02;;;15.30;99.90;;;;;;5008901;28;20049;-82
2023/08/02 00:09:23;;;;;;;5.05;1.00;;;15.30;99.90;;;;;;5003669;28;20410;-81
2023/08/02 00:11:50;;;;;;;2.42;1.33;;;15.30;99.90;;;;;;5003923;28;20375;-82
2023/08/02 00:14:16;;;;;;;5.30;1.13;;;15.40;99.90;;;;;;5002891;28;20565;-82
2023/08/02 00:16:42;;;;;;;3.15;1.52;;;15.30;99.90;;;;;;5002557;28;20150;-82
2023/08/02 00:19:08;;;;;;;3.70;1.27;;;15.30;99.90;;;;;;5004781;28;20101;-79
2023/08/02 00:21:33;;;;;;;4.53;1.42;;;15.30;99.90;;;;;;5006452;28;20420;-79
2023/08/02 00:23:59;;;;;;;6.88;1.25;;;15.30;99.90;;;;;;5005143;28;20034;-81
2023/08/02 00:26:25;;;;;;;4.78;1.20;;;15.30;99.90;;;;;;5003962;28;20045;-79
2023/08/02 00:28:50;;;;;;;4.85;1.10;;;15.40;99.90;;;;;;5002724;28;20044;-82
2023/08/02 00:31:16;;;;;;;3.78;1.83;;;15.30;99.90;;;;;;5005946;28;20042;-81
2023/08/02 00:33:42;;;;;;;5.32;1.70;;;15.30;99.90;;;;;;5006694;28;20437;-80
2023/08/02 00:36:08;;;;;;;4.90;1.67;;;15.40;99.90;;;;;;5004888;28;20501;-80
2023/08/02 00:38:34;;;;;;;5.18;1.98;;;15.30;99.90;;;;;;5003087;28;20061;-82
2023/08/02 00:41:04;;;;;;;6.30;1.55;;;15.30;99.90;;;;;;5003138;28;20471;-82
2023/08/02 00:43:36;;;;;;;4.88;1.92;;;15.40;99.90;;;;;;4994129;28;20104;-81
2023/08/02 00:46:02;;;;;;;4.25;1.55;;;15.30;99.90;;;;;;5003559;28;20045;-81
2023/08/02 00:48:28;;;;;;;5.53;2.05;;;15.40;99.90;;;;;;5005121;28;20030;-82
2023/08/02 00:50:54;;;;;;;5.45;1.73;;;15.40;99.90;;;;;;5004649;28;20036;-81
2023/08/02 00:53:21;;;;;;;5.68;1.70;;;15.40;99.90;;;;;;5006287;28;20056;-81
2023/08/02 00:55:48;;;;;;;3.33;1.75;;;15.90;99.90;;;;;;5006319;28;20040;-81
2023/08/02 00:58:14;;;;;;;5.50;1.80;;;15.40;99.90;;;;;;5003685;28;20535;-81
2023/08/02 01:00:40;;;;;;;5.03;2.10;;;15.40;99.90;;;;;;5003051;28;20046;-81
2023/08/02 01:03:06;;;;;;;6.10;2.80;;;15.30;99.90;;;;;;5002802;28;20104;-80
2023/08/02 01:05:38;;;;;;;3.70;1.95;;;15.40;99.90;;;;;;5004910;28;20400;-81
2023/08/02 01:08:08;;;;;;;4.25;2.35;;;15.40;99.90;;;;;;5005458;28;20617;-81
2023/08/02 01:10:47;;;;;;;6.90;2.13;;;15.40;99.90;;;;;;5001796;28;20046;-82
2023/08/02 01:13:15;;;;;;;4.85;2.13;;;15.40;99.90;;;;;;5004244;28;20046;-81
2023/08/02 01:15:41;;;;;;;8.43;2.60;;;15.60;99.90;;;;;;5004778;28;20095;-81
2023/08/02 01:18:08;;;;;;;4.75;2.30;;;15.40;99.90;;;;;;5003648;28;20058;-81
2023/08/02 01:20:33;;;;;;;7.20;2.55;;;15.40;99.90;;;;;;5002378;28;20070;-81
2023/08/02 01:22:59;;;;;;;6.13;2.58;;;15.40;99.90;;;;;;5002195;28;20074;-81
2023/08/02 01:25:29;;;;;;;9.63;2.85;;;15.40;99.90;;;;;;5004624;28;20496;-79
2023/08/02 01:27:59;;;;;;;4.97;2.20;;;15.40;99.90;;;;;;5005604;28;20053;-81
2023/08/02 01:30:33;;;;;;;7.47;2.83;;;16.10;99.90;;;;;;4988156;28;20141;-81
2023/08/02 01:32:59;;;;;;;7.40;2.45;;;15.40;99.90;;;;;;5005045;28;20092;-81
2023/08/02 01:35:26;;;;;;;6.50;2.33;;;15.40;99.90;;;;;;5002966;28;20046;-81
2023/08/02 01:37:53;;;;;;;6.95;2.50;;;15.40;99.90;;;;;;5001824;28;20069;-81
2023/08/02 01:40:18;;;;;;;5.85;2.58;;;15.40;99.90;;;;;;5002070;28;20050;-81
2023/08/02 01:42:44;;;;;;;4.63;2.85;;;15.40;99.90;;;;;;5004295;28;20422;-82
2023/08/02 01:45:10;;;;;;;4.90;2.80;;;15.40;99.90;;;;;;5005023;28;20069;-80
2023/08/02 01:47:36;;;;;;;10.35;2.80;;;15.40;99.90;;;;;;5007375;28;20038;-82
2023/08/02 01:50:02;;;;;;;9.70;3.67;;;15.40;99.90;;;;;;5012412;28;20044;-81
2023/08/02 01:52:27;;;;;;;10.77;3.58;;;15.40;99.90;;;;;;5008616;28;20041;-81
2023/08/02 01:54:53;;;;;;;7.15;3.15;;;15.30;99.90;;;;;;5005334;28;20038;-81
2023/08/02 01:57:19;;;;;;;5.72;2.97;;;15.40;99.90;;;;;;5003798;28;20125;-81
2023/08/02 01:59:44;;;;;;;8.27;3.10;;;15.30;99.90;;;;;;5000940;28;20046;-81
2023/08/02 02:02:10;;;;;;;10.10;3.22;;;15.30;99.90;;;;;;5001938;28;20133;-81
2023/08/02 02:04:35;;;;;;;12.15;3.45;;;15.30;99.90;;;;;;5003814;28;20030;-81
2023/08/02 02:07:01;;;;;;;5.55;3.20;;;15.30;99.90;;;;;;4987061;28;20539;-81
2023/08/02 02:09:27;;;;;;;7.43;2.78;;;15.40;99.90;;;;;;5000576;28;20062;-81
2023/08/02 02:11:52;;;;;;;4.22;2.53;;;15.30;99.90;;;;;;5001954;28;20061;-82
2023/08/02 02:14:18;;;;;;;6.50;3.15;;;15.30;99.90;;;;;;5001015;28;20104;-81
2023/08/02 02:16:43;;;;;;;7.93;2.58;;;15.30;99.90;;;;;;5004513;28;20533;-81
2023/08/02 02:19:09;;;;;;;5.22;2.80;;;15.30;99.90;;;;;;5004632;28;20046;-81
2023/08/02 02:21:35;;;;;;;4.97;2.58;;;15.40;99.90;;;;;;4992826;28;20043;-81
2023/08/02 02:24:00;;;;;;;7.07;2.20;;;15.40;99.90;;;;;;5001171;28;20041;-81
2023/08/02 02:26:26;;;;;;;7.20;2.40;;;15.40;99.90;;;;;;5002382;28;20040;-81
2023/08/02 02:28:52;;;;;;;6.53;2.33;;;15.40;99.90;;;;;;5003868;28;20037;-81
2023/08/02 02:31:17;;;;;;;6.40;2.42;;;15.40;99.90;;;;;;5003742;28;20104;-82
2023/08/02 02:33:43;;;;;;;6.43;2.95;;;15.40;99.90;;;;;;5001199;28;20358;-81
2023/08/02 02:36:08;;;;;;;6.03;2.13;;;15.40;99.90;;;;;;5001191;28;20129;-82
2023/08/02 02:38:34;;;;;;;9.20;2.42;;;15.30;99.90;;;;;;5003664;28;20496;-79
2023/08/02 02:41:00;;;;;;;5.25;2.25;;;15.30;99.90;;;;;;5004045;28;20038;-79
2023/08/02 02:43:25;;;;;;;6.90;2.42;;;15.30;99.90;;;;;;5001969;28;20365;-80
2023/08/02 02:45:51;;;;;;;7.95;2.75;;;15.30;99.90;;;;;;5001125;28;20046;-81
2023/08/02 02:48:16;;;;;;;8.90;2.22;;;15.30;99.90;;;;;;5001309;28;20049;-81
2023/08/02 02:50:42;;;;;;;6.55;2.78;;;15.30;99.90;;;;;;5003464;28;20113;-80
2023/08/02 02:53:08;;;;;;;3.35;1.90;;;15.40;99.90;;;;;;5003906;28;20084;-81
2023/08/02 02:55:33;;;;;;;8.93;2.50;;;15.30;99.90;;;;;;5000671;28;20467;-81
2023/08/02 02:57:59;;;;;;;11.45;2.70;;;15.70;99.90;;;;;;5000683;28;20034;-80
2023/08/02 03:00:24;;;;;;;7.75;2.58;;;15.30;99.90;;;;;;5002096;28;20038;-80
2023/08/02 03:02:50;;;;;;;10.68;2.50;;;15.30;99.90;;;;;;5002491;28;20107;-80
2023/08/02 03:05:16;;;;;;;7.82;2.58;;;15.30;99.90;;;;;;5003918;28;20498;-81
2023/08/02 03:07:41;;;;;;;8.90;3.28;;;15.30;99.90;;;;;;5002437;28;20346;-81
2023/08/02 03:10:07;;;;;;;9.32;2.88;;;15.30;99.90;;;;;;5002948;28;20518;-81
2023/08/02 03:12:33;;;;;;;9.25;3.03;;;15.30;99.90;;;;;;5001577;28;20513;-81
2023/08/02 03:14:59;;;;;;;8.85;3.67;;;15.30;99.90;;;;;;5000614;28;20105;-80
2023/08/02 03:17:24;;;;;;;7.97;3.22;;;15.30;99.90;;;;;;5000767;28;20046;-80
2023/08/02 03:19:50;;;;;;;7.63;2.90;;;15.30;99.90;;;;;;5003798;28;20037;-80
2023/08/02 03:22:15;;;;;;;7.45;2.72;;;16.00;99.90;;;;;;5003840;28;20508;-80
2023/08/02 03:24:41;;;;;;;8.98;3.10;;;15.30;99.90;;;;;;4999568;28;20038;-80
2023/08/02 03:27:07;;;;;;;11.75;3.65;;;15.30;99.90;;;;;;5000304;28;20046;-80
2023/08/02 03:29:32;;;;;;;10.63;3.42;;;15.30;99.90;;;;;;5001851;28;20042;-80
2023/08/02 03:31:58;;;;;;;9.73;3.70;;;15.30;99.90;;;;;;5003474;28;20042;-80
2023/08/02 03:34:23;;;;;;;13.35;4.25;;;15.20;99.90;;;;;;5011368;28;20052;-81
2023/08/02 03:36:49;;;;;;;13.10;4.10;;;15.30;99.90;;;;;;5009717;28;20038;-80
2023/08/02 03:39:15;;;;;;;7.45;3.88;;;15.20;99.90;;;;;;4999406;28;20097;-80
2023/08/02 03:41:40;;;;;;;11.02;3.55;;;15.20;99.90;;;;;;5003422;28;20042;-80
2023/08/02 03:44:06;;;;;;;11.18;4.13;;;16.10;99.90;;;;;;5003278;28;20403;-81
2023/08/02 03:46:31;;;;;;;8.38;3.72;;;15.20;99.90;;;;;;5001341;28;20046;-81
2023/08/02 03:48:57;;;;;;;17.20;4.45;;;15.20;99.90;;;;;;4999807;28;20092;-81
2023/08/02 03:51:23;;;;;;;10.07;3.55;;;15.20;99.90;;;;;;4999031;28;20046;-80
2023/08/02 03:53:48;;;;;;;11.63;4.22;;;15.20;99.90;;;;;;4999378;28;20057;-80
2023/08/02 03:56:14;;;;;;;24.73;3.97;;;16.50;99.90;;;;;;4999969;28;20050;-80
2023/08/02 03:58:40;;;;;;;9.45;4.00;;;15.20;99.90;;;;;;5002691;28;20149;-80
2023/08/02 04:01:05;;;;;;;16.92;4.70;;;15.20;99.90;;;;;;5002669;28;20421;-80
2023/08/02 04:03:31;;;;;;;13.80;4.43;;;15.20;99.90;;;;;;5003268;28;20379;-80
2023/08/02 04:05:56;;;;;;;14.25;4.10;;;15.20;99.90;;;;;;5002726;28;20104;-80
2023/08/02 04:08:22;;;;;;;13.00;4.53;;;15.20;99.90;;;;;;5002688;28;20486;-81
2023/08/02 04:10:48;;;;;;;15.85;4.60;;;15.20;99.90;;;;;;4982128;28;20053;-80
2023/08/02 04:13:13;;;;;;;17.77;4.97;;;15.20;99.90;;;;;;4999090;28;20330;-80
2023/08/02 04:15:39;;;;;;;18.92;5.10;;;15.90;99.90;;;;;;4983416;28;20144;-81
2023/08/02 04:18:04;;;;;;;17.13;4.82;;;15.20;99.90;;;;;;5003012;28;20129;-80
2023/08/02 04:20:30;;;;;;;16.35;5.75;;;15.90;99.90;;;;;;5000137;28;20042;-80
2023/08/02 04:22:56;;;;;;;15.85;4.90;;;15.20;99.90;;;;;;4996318;28;20042;-81
2023/08/02 04:25:22;;;;;;;17.95;4.85;;;15.10;99.90;;;;;;5003031;28;20100;-80
2023/08/02 04:27:47;;;;;;;17.30;5.82;;;15.10;99.90;;;;;;4998744;28;20046;-81
2023/08/02 04:30:13;;;;;;;17.00;5.35;;;15.10;99.90;;;;;;4999480;28;20043;-80
2023/08/02 04:32:39;;;;;;;18.55;5.50;;;15.10;99.90;;;;;;5001650;28;20042;-80
2023/08/02 04:35:04;;;;;;;12.70;4.97;;;15.10;99.90;;;;;;5002240;28;20540;-81
2023/08/02 04:37:30;;;;;;;17.20;5.50;;;15.10;99.90;;;;;;5000628;28;20050;-80
2023/08/02 04:39:56;;;;;;;17.73;5.70;;;15.50;99.90;;;;;;5001364;28;20401;-80
2023/08/02 04:42:21;;;;;;;17.17;5.55;;;15.10;99.90;;;;;;5002483;28;20050;-80
2023/08/02 04:44:47;;;;;;;16.88;5.82;;;15.00;99.90;;;;;;5005927;28;20397;-81
2023/08/02 04:47:12;;;;;;;12.70;5.00;;;15.00;99.90;;;;;;5006604;28;20056;-80
2023/08/02 04:49:38;;;;;;;11.02;4.95;;;15.00;99.90;;;;;;5003995;28;20053;-80
2023/08/02 04:52:04;;;;;;;16.08;5.20;;;15.00;99.90;;;;;;5000115;28;20156;-80
2023/08/02 04:54:30;;;;;;;21.08;5.80;;;15.00;99.90;;;;;;5004498;28;20446;-80
2023/08/02 04:56:55;;;;;;;13.77;5.60;;;15.60;99.90;;;;;;5002455;28;20080;-80
2023/08/02 04:59:23;;;;;;;12.77;5.07;;;15.00;99.90;;;;;;5002512;28;20042;-81
2023/08/02 05:01:48;;;;;;;21.60;5.18;;;15.00;99.90;;;;;;5005821;28;20050;-81
2023/08/02 05:04:14;;;;;;;14.00;5.25;;;15.00;99.90;;;;;;5007616;28;20046;-80
2023/08/02 05:06:40;;;;;;;14.15;5.85;;;15.00;99.90;;;;;;5004400;28;20506;-80
2023/08/02 05:09:06;;;;;;;12.63;5.10;;;15.00;99.90;;;;;;5005686;28;20037;-80
2023/08/02 05:11:32;;;;;;;19.73;6.80;;;15.40;99.90;;;;;;5004094;28;20093;-80
2023/08/02 05:13:58;;;;;;;13.43;5.50;;;14.90;99.90;;;;;;5003188;28;20058;-80
2023/08/02 05:16:25;;;;;;;13.52;6.40;;;15.00;99.90;;;;;;5001147;28;20557;-81
2023/08/02 05:18:51;;;;;;;16.45;6.35;;;14.90;99.90;;;;;;5006676;28;20044;-81
2023/08/02 05:21:16;;;;;;;11.43;5.05;;;15.90;99.90;;;;;;5017159;28;20485;-81
2023/08/02 05:23:43;;;;;;;12.15;5.30;;;15.30;99.90;;;;;;5011707;28;20446;-82
2023/08/02 05:26:09;;;;;;;9.63;5.35;;;14.90;99.90;;;;;;5002557;28;20046;-80
2023/08/02 05:28:36;;;;;;;14.75;5.95;;;15.80;99.90;;;;;;5002425;28;20066;-81
2023/08/02 05:31:01;;;;;;;12.80;5.97;;;15.10;99.90;;;;;;5005037;28;20049;-81
2023/08/02 05:33:27;;;;;;;14.35;6.00;;;14.90;99.90;;;;;;5005701;28;20381;-81
2023/08/02 05:35:53;;;;;;;12.40;6.55;;;14.90;99.90;;;;;;5002875;28;20119;-81
2023/08/02 05:38:18;;;;;;;19.30;6.70;;;14.90;99.90;;;;;;5001489;28;20130;-82
2023/08/02 05:40:44;;;;;;;16.52;5.70;;;14.90;99.90;;;;;;5003688;28;20438;-80
2023/08/02 05:43:10;;;;;;;17.00;6.25;;;14.90;99.90;;;;;;5004164;28;20464;-80
2023/08/02 05:45:35;;;;;;;11.35;6.03;;;15.80;99.90;;;;;;5004373;28;20038;-81
2023/08/02 05:48:01;;;;;;;17.85;6.13;;;15.00;99.90;;;;;;5002027;28;20050;-81
2023/08/02 05:50:28;;;;;;;14.90;6.38;;;14.90;99.90;;;;;;5002014;28;20038;-81
2023/08/02 05:52:54;;;;;;;13.35;6.28;;;15.80;99.90;;;;;;5003537;28;20567;-81
2023/08/02 05:55:20;;;;;;;11.98;6.10;;;15.40;99.90;;;;;;5005429;28;20121;-82
2023/08/02 05:57:48;;;;;;;13.48;6.47;;;15.00;99.90;;;;;;5003508;28;20065;-82
2023/08/02 06:00:14;;;;;;;13.30;6.20;;;15.00;99.90;;;;;;4999746;28;20061;-82
2023/08/02 06:02:39;;;;;;;16.08;6.13;;;15.00;99.90;;;;;;5001227;28;20065;-81
2023/08/02 06:05:05;;;;;;;15.23;6.30;;;15.00;99.90;;;;;;5005236;28;20490;-81
2023/08/02 06:07:31;;;;;;;15.15;6.05;;;15.00;99.90;;;;;;5002672;28;20383;-81
2023/08/02 06:09:56;;;;;;;18.00;6.43;;;15.10;99.90;;;;;;5001937;28;20109;-82
2023/08/02 06:12:22;;;;;;;13.93;5.90;;;15.10;99.90;;;;;;5001630;28;20061;-82
2023/08/02 06:14:48;;;;;;;13.10;5.93;;;15.10;99.90;;;;;;5000837;28;20039;-82
2023/08/02 06:17:14;;;;;;;17.02;6.90;;;15.10;99.90;;;;;;5004332;28;20220;-82
2023/08/02 06:19:39;;;;;;;15.52;7.15;;;15.20;99.90;;;;;;5003957;28;20050;-82
2023/08/02 06:22:05;;;;;;;13.15;6.90;;;15.20;99.90;;;;;;5001483;28;20078;-82
2023/08/02 06:24:31;;;;;;;15.57;6.72;;;15.20;99.90;;;;;;4999945;28;20043;-81
2023/08/02 06:26:56;;;;;;;15.98;7.65;;;15.20;99.90;;;;;;5003446;28;20046;-81
2023/08/02 06:29:22;;;;;;;12.23;7.03;;;15.20;99.90;;;;;;5004301;28;20042;-81
2023/08/02 06:31:47;;;;;;;12.25;5.97;;;15.20;99.90;;;;;;5003152;28;20502;-81
2023/08/02 06:34:13;;;;;;;13.63;6.97;;;15.20;99.90;;;;;;5000459;28;20038;-81
2023/08/02 06:36:39;;;;;;;19.00;7.57;;;15.20;99.90;;;;;;5001280;28;20486;-82
2023/08/02 06:39:05;;;;;;;14.27;7.18;;;15.30;99.90;;;;;;5004079;28;20088;-81
2023/08/02 06:41:31;;;;;;;15.77;7.22;;;15.30;99.90;;;;;;5003637;28;20136;-81
2023/08/02 06:43:56;;;;;;;17.55;7.45;;;15.30;99.90;;;;;;5001864;28;20121;-82
2023/08/02 06:46:22;;;;;;;17.20;8.00;;;15.30;99.90;;;;;;4999511;28;20050;-82
2023/08/02 06:48:48;;;;;;;15.80;7.80;;;15.40;99.90;;;;;;5000578;28;20039;-81
2023/08/02 06:51:13;;;;;;;14.73;7.55;;;15.40;99.90;;;;;;5004541;28;20045;-81
2023/08/02 06:53:39;;;;;;;14.05;7.60;;;15.40;99.90;;;;;;5004219;28;20041;-81
2023/08/02 06:56:16;;;;;;;16.17;7.18;;;15.40;99.90;;;;;;4998787;28;20085;-81
2023/08/02 06:58:42;;;;;;;10.52;6.53;;;15.40;99.90;;;;;;5000520;28;20042;-81
2023/08/02 07:01:16;;;;;;;11.20;6.60;;;15.50;99.90;;;;;;5004476;28;20042;-81
2023/08/02 07:03:42;;;;;;;13.55;6.63;;;15.50;99.90;;;;;;4986427;28;20038;-80
2023/08/02 07:06:09;;;;;;;12.52;6.25;;;15.50;99.90;;;;;;5001994;28;20029;-81
2023/08/02 07:08:35;;;;;;;11.93;5.72;;;15.60;99.90;;;;;;5013066;28;20053;-80
2023/08/02 07:11:00;;;;;;;11.68;5.68;;;15.60;99.90;;;;;;5003313;28;20076;-82
2023/08/02 07:13:26;;;;;;;9.13;5.63;;;15.60;99.90;;;;;;5000457;28;20133;-81
2023/08/02 07:15:52;;;;;;;9.25;5.93;;;16.50;99.90;;;;;;5000736;28;20113;-80
2023/08/02 07:18:17;;;;;;;15.23;5.55;;;15.60;99.90;;;;;;5003624;28;20030;-80
2023/08/02 07:20:43;;;;;;;10.63;5.57;;;15.70;99.90;;;;;;5002294;28;20046;-80
2023/08/02 07:23:08;;;;;;;12.35;5.25;;;15.60;99.90;;;;;;4999965;28;20042;-80
2023/08/02 07:25:34;;;;;;;21.52;5.97;;;15.70;99.90;;;;;;4999063;28;20046;-80
2023/08/02 07:28:00;;;;;;;14.45;6.35;;;15.70;99.90;;;;;;5001763;28;20079;-80
2023/08/02 07:30:26;;;;;;;11.77;5.05;;;15.60;99.90;;;;;;5002865;28;20041;-80
2023/08/02 07:32:52;;;;;;;12.82;5.07;;;15.70;99.90;;;;;;5002745;28;20034;-80
2023/08/02 07:35:17;;;;;;;10.48;4.30;;;15.70;99.90;;;;;;5000568;28;20038;-80
2023/08/02 07:37:43;;;;;;;8.27;4.65;;;15.60;99.90;;;;;;4999135;28;20042;-80
2023/08/02 07:40:09;;;;;;;12.32;4.82;;;15.60;99.90;;;;;;5003400;28;20049;-80
2023/08/02 07:42:35;;;;;;;9.95;4.25;;;15.60;99.90;;;;;;5003318;28;20378;-80
2023/08/02 07:45:06;;;;;;;14.10;4.93;;;15.70;99.90;;;;;;5001019;28;20041;-79
2023/08/02 07:47:32;;;;;;;9.68;4.88;;;15.60;99.90;;;;;;4999915;28;20034;-80
2023/08/02 07:49:58;;;;;;;10.68;4.20;;;15.60;99.90;;;;;;5000008;28;20038;-80
2023/08/02 07:52:23;;;;;;;8.95;4.03;;;15.60;99.90;;;;;;5001596;28;20050;-80
2023/08/02 07:54:53;;;;;;;12.90;4.78;;;15.60;99.90;;;;;;5002178;28;20129;-80
2023/08/02 07:57:20;;;;;;;10.70;4.65;;;15.60;99.90;;;;;;4992121;28;20042;-81
2023/08/02 07:59:46;;;;;;;8.52;4.32;;;15.60;99.90;;;;;;4999130;28;20046;-81
2023/08/02 08:02:12;;;;;;;9.02;4.55;;;15.60;99.90;;;;;;5003118;28;20046;-80
2023/08/02 08:04:41;;;;;;;14.13;4.43;;;15.60;99.90;;;;;;5002091;28;20041;-80
2023/08/02 08:07:07;;;;;;;10.48;3.80;;;15.60;99.90;;;;;;4983078;28;20042;-81
2023/08/02 08:09:34;;;;;;;9.20;3.97;;;15.60;99.90;;;;;;4999615;28;20050;-80
2023/08/02 08:12:03;;;;;;;8.98;3.95;;;15.60;99.90;;;;;;4999652;28;20050;-81
2023/08/02 08:14:29;;;;;;;9.77;4.43;;;14.70;99.90;;;;;;5003170;28;20371;-80
2023/08/02 08:16:56;;;;;;;11.25;4.32;;;15.50;99.90;;;;;;5006467;28;20425;-80
2023/08/02 08:19:28;;;;;;;5.85;3.85;;;15.50;99.90;;;;;;5002868;28;20056;-80
2023/08/02 08:21:57;;;;;;;8.93;3.50;;;15.50;99.90;;;;;;5002581;28;20506;-80
2023/08/02 08:24:23;;;;;;;12.00;3.92;;;15.50;99.90;;;;;;5005444;28;20098;-80
2023/08/02 08:26:50;;;;;;;11.52;4.05;;;15.50;99.90;;;;;;5006840;28;20451;-81
2023/08/02 08:29:16;;;;;;;11.82;4.13;;;15.50;99.90;;;;;;5012880;28;20486;-81
2023/08/02 08:31:42;;;;;;;8.77;4.10;;;15.50;99.90;;;;;;5006508;28;20113;-80
2023/08/02 08:34:07;;;;;;;9.27;3.83;;;15.40;99.90;;;;;;5004308;28;20567;-80
2023/08/02 08:36:33;;;;;;;11.73;4.20;;;15.40;99.90;;;;;;5003300;28;20396;-81
2023/08/02 08:38:59;;;;;;;10.77;4.15;;;15.40;99.90;;;;;;5003173;28;20037;-82
2023/08/02 08:41:25;;;;;;;10.15;4.60;;;15.40;99.90;;;;;;5002708;28;20053;-81
2023/08/02 08:43:51;;;;;;;8.30;3.58;;;15.30;99.90;;;;;;5001561;28;20523;-80
2023/08/02 08:46:18;;;;;;;10.13;5.10;;;15.30;99.90;;;;;;5004381;28;20163;-81
2023/08/02 08:48:44;;;;;;;9.70;4.22;;;15.30;99.90;;;;;;5005752;28;20057;-80
2023/08/02 08:51:11;;;;;;;6.88;3.80;;;15.30;99.90;;;;;;5007135;28;20125;-80
2023/08/02 08:53:42;;;;;;;10.32;3.92;;;15.30;99.90;;;;;;5010435;28;20406;-81
2023/08/02 08:56:09;;;;;;;8.98;4.38;;;15.20;99.90;;;;;;5011964;28;20081;-81
2023/08/02 08:58:36;;;;;;;8.20;3.03;;;15.20;99.90;;;;;;5002814;28;20494;-81
2023/08/02 09:01:06;;;;;;;8.25;4.20;;;15.20;99.90;;;;;;5003070;28;20086;-81
2023/08/02 09:03:34;;;;;;;12.02;4.78;;;14.20;99.90;;;;;;5005748;28;20107;-81
2023/08/02 09:06:01;;;;;;;9.25;3.53;;;15.20;99.90;;;;;;5006252;28;20113;-81
2023/08/02 09:08:27;;;;;;;10.45;3.97;;;15.20;99.90;;;;;;5001919;28;20046;-81
2023/08/02 09:10:53;;;;;;;11.38;4.10;;;15.20;99.90;;;;;;5002567;28;20064;-81
2023/08/02 09:13:26;;;;;;;7.90;3.75;;;15.20;99.90;;;;;;5003862;28;20034;-81
2023/08/02 09:16:13;;;;;;;5.25;3.67;;;15.20;99.90;;;;;;5005108;28;20093;-81
2023/08/02 09:18:44;;;;;;;8.65;3.53;;;15.20;99.90;;;;;;4994777;28;20038;-81
2023/08/02 09:21:14;;;;;;;7.35;4.00;;;15.30;99.90;;;;;;5003694;28;20405;-81
2023/08/02 09:23:40;;;;;;;7.50;4.43;;;15.30;99.90;;;;;;5003807;28;20496;-81
2023/08/02 09:26:13;;;;;;;8.63;3.50;;;15.20;99.90;;;;;;5002580;28;20104;-81
2023/08/02 09:28:39;;;;;;;7.95;3.78;;;15.30;99.90;;;;;;5002011;28;20510;-81
2023/08/02 09:31:17;;;;;;;10.15;4.80;;;15.30;99.90;;;;;;5001924;28;20137;-82
2023/08/02 09:33:51;;;;;;;10.90;4.65;;;15.30;99.90;;;;;;5005514;28;20402;-82
2023/08/02 09:36:30;;;;;;;11.50;4.28;;;15.30;99.90;;;;;;5003453;28;20050;-81
2023/08/02 09:39:18;;;;;;;8.43;4.40;;;15.30;99.90;;;;;;5002037;28;20034;-81
2023/08/02 09:41:44;;;;;;;7.68;4.50;;;15.20;99.90;;;;;;4996400;28;20050;-81
2023/08/02 09:44:20;;;;;;;6.15;4.63;;;15.30;99.90;;;;;;5002370;28;20057;-82
2023/08/02 09:46:45;;;;;;;14.50;5.22;;;15.30;99.90;;;;;;5003968;28;20042;-81
2023/08/02 09:49:19;;;;;;;9.85;5.03;;;15.30;99.90;;;;;;5003882;28;20107;-82
2023/08/02 09:51:45;;;;;;;8.13;3.90;;;15.30;99.90;;;;;;5001464;28;20042;-81
2023/08/02 09:54:12;;;;;;;11.93;4.95;;;15.30;99.90;;;;;;5001080;28;20092;-81
2023/08/02 09:56:39;;;;;;;11.18;5.63;;;15.40;99.90;;;;;;5005213;28;20088;-81
2023/08/02 09:59:06;;;;;;;6.70;4.60;;;15.40;99.90;;;;;;4986969;28;20509;-81
2023/08/02 10:01:33;;;;;;;7.47;4.53;;;15.40;99.90;;;;;;4993444;28;20038;-82
2023/08/02 10:04:10;;;;;;;6.43;4.43;;;15.40;99.90;;;;;;5000732;28;20041;-81
2023/08/02 10:06:49;;;;;;;7.30;4.18;;;15.40;99.90;;;;;;4993605;28;20044;-82
2023/08/02 10:09:19;;;;;;;8.65;5.18;;;15.40;99.90;;;;;;5002533;28;20078;-82
2023/08/02 10:11:56;;;;;;;10.15;4.93;;;15.40;99.90;;;;;;5004423;28;20050;-81
2023/08/02 10:14:22;;;;;;;7.13;4.20;;;15.40;99.90;;;;;;5002690;28;20051;-81
2023/08/02 10:16:50;;;;;;;8.30;4.80;;;15.40;99.90;;;;;;5001560;28;20048;-82
2023/08/02 10:19:17;;;;;;;7.05;4.25;;;15.40;99.90;;;;;;5001882;28;20070;-81
2023/08/02 10:21:44;;;;;;;8.30;4.40;;;15.40;99.90;;;;;;5004843;28;20044;-81
2023/08/02 10:24:13;;;;;;;7.93;4.15;;;15.40;99.90;;;;;;5003194;28;20478;-82
2023/08/02 10:26:40;;;;;;;8.73;4.10;;;15.40;99.90;;;;;;5000408;28;20513;-82
2023/08/02 10:29:07;;;;;;;4.97;3.60;;;15.40;99.90;;;;;;5000937;28;20109;-82
2023/08/02 10:31:34;;;;;;;6.10;3.53;;;15.40;99.90;;;;;;5004621;28;20112;-82
2023/08/02 10:33:59;;;;;;;8.02;4.18;;;15.40;99.90;;;;;;4986609;28;20044;-81
2023/08/02 10:36:25;;;;;;;4.28;3.47;;;15.50;99.90;;;;;;5002845;28;20553;-81
2023/08/02 10:38:55;;;;;;;9.32;4.00;;;15.40;99.90;;;;;;5008117;28;20045;-81
2023/08/02 10:41:26;;;;;;;11.30;3.97;;;15.50;99.90;;;;;;5005023;28;20045;-82
2023/08/02 10:44:00;;;;;;;7.85;3.38;;;15.40;99.90;;;;;;5004363;28;20041;-81
2023/08/02 10:46:28;;;;;;;8.82;3.63;;;15.50;99.90;;;;;;5001347;28;20133;-82
2023/08/02 10:49:13;;;;;;;4.00;2.92;;;15.50;99.90;;;;;;5000194;28;20046;-82
2023/08/02 10:51:39;;;;;;;3.83;2.65;;;15.50;99.90;;;;;;4993315;28;20049;-82
2023/08/02 10:54:19;;;;;;;4.75;3.00;;;15.50;99.90;;;;;;4999896;28;20046;-82
2023/08/02 10:56:51;;;;;;;3.65;3.13;;;15.60;99.90;;;;;;4992429;28;20409;-82
2023/08/02 10:59:18;;;;;;;2.95;2.35;;;15.60;99.90;;;;;;5001261;28;20481;-82
2023/08/02 11:01:57;;;;;;;3.17;2.17;;;15.70;99.90;;;;;;5003288;28;20482;-81
2023/08/02 11:04:23;;;;;;;1.77;1.67;;;15.70;99.90;;;;;;5001278;28;20049;-82
2023/08/02 11:06:49;;;;;;;2.08;1.70;;;15.70;99.90;;;;;;5000100;28;20041;-82
2023/08/02 11:09:15;;;;;;;1.65;1.48;;;15.80;99.90;;;;;;4982015;28;20163;-81
2023/08/02 11:11:40;;;;;;;2.30;1.55;;;15.80;99.90;;;;;;5002931;28;20076;-81
2023/08/02 11:14:06;;;;;;;3.75;1.70;;;15.80;99.90;;;;;;5002613;28;20053;-81
2023/08/02 11:16:41;;;;;;;3.65;1.15;;;15.80;99.90;;;;;;5000733;28;20044;-81
2023/08/02 11:19:10;;;;;;;2.03;1.30;;;15.80;99.90;;;;;;5000024;28;20100;-82
2023/08/02 11:21:52;;;;;;;1.27;0.88;;;15.80;99.90;;;;;;5002820;28;20073;-81
2023/08/02 11:24:17;;;;;;;0.75;0.70;;;15.80;99.90;;;;;;5002550;28;20134;-81
2023/08/02 11:26:43;;;;;;;1.67;0.90;;;15.80;99.90;;;;;;5000337;28;20062;-81
2023/08/02 11:29:09;;;;;;;0.70;0.70;;;15.80;99.90;;;;;;4998254;28;20074;-81
2023/08/02 11:31:35;;;;;;;3.00;0.80;;;15.90;99.90;;;;;;5002553;28;20552;-81
2023/08/02 11:34:03;;;;;;;1.80;0.70;;;15.90;99.90;;;;;;5003428;28;20087;-81
2023/08/02 11:36:33;;;;;;;1.50;0.85;;;16.00;99.90;;;;;;5002730;28;20046;-81
2023/08/02 11:39:00;;;;;;;0.98;0.80;;;16.00;99.90;;;;;;5003378;28;20052;-81
2023/08/02 11:41:26;;;;;;;0.95;0.95;;;16.10;99.90;;;;;;5002383;28;20072;-81
2023/08/02 11:43:51;;;;;;;1.15;0.80;;;16.10;99.90;;;;;;4999219;28;20518;-81
2023/08/02 11:46:23;;;;;;;0.80;0.80;;;16.20;99.90;;;;;;4998942;28;20050;-81
2023/08/02 11:48:49;;;;;;;1.27;0.80;;;16.30;99.90;;;;;;4976634;28;20513;-81
2023/08/02 11:51:16;;;;;;;0.90;0.80;;;16.40;99.90;;;;;;5006032;28;20042;-81
2023/08/02 11:53:57;;;;;;;1.40;0.77;;;16.50;99.90;;;;;;5008439;28;20049;-81
2023/08/02 11:56:27;;;;;;;0.60;0.60;;;16.50;99.90;;;;;;5009542;28;20034;-81
2023/08/02 11:58:54;;;;;;;0.77;0.52;;;16.60;99.90;;;;;;5005811;28;20121;-80
2023/08/02 12:01:20;;;;;;;0.40;0.40;;;16.60;99.90;;;;;;5005116;28;20050;-80
2023/08/02 12:03:59;;;;;;;2.05;0.70;;;16.60;99.90;;;;;;4997255;28;20486;-81
2023/08/02 12:06:26;;;;;;;0.70;0.50;;;16.60;99.90;;;;;;5006407;28;20050;-81
2023/08/02 12:08:56;;;;;;;3.10;0.70;;;16.70;99.90;;;;;;5008412;28;20706;-82
2023/08/02 12:11:23;;;;;;;0.70;0.50;;;16.70;99.90;;;;;;5009060;28;20140;-81
2023/08/02 12:13:49;;;;;;;0.75;0.60;;;16.70;99.90;;;;;;5006487;28;20050;-81
2023/08/02 12:16:16;;;;;;;0.63;0.63;;;16.70;99.90;;;;;;5006343;28;20042;-82
2023/08/02 12:18:57;;;;;;;0.77;0.77;;;16.80;99.90;;;;;;5008147;28;20038;-81
2023/08/02 12:21:24;;;;;;;0.68;0.50;;;16.80;99.90;;;;;;5008584;28;20403;-81
2023/08/02 12:23:51;;;;;;;2.45;1.13;;;16.90;99.90;;;;;;5003549;28;20069;-81
2023/08/02 12:26:34;;;;;;;0.98;0.98;;;16.90;99.90;;;;;;5013810;28;20038;-82
2023/08/02 12:29:01;;;;;;;1.52;1.35;;;17.00;99.90;;;;;;4999325;28;20818;-81
2023/08/02 12:31:27;;;;;;;1.23;1.20;;;17.00;99.90;;;;;;5006654;28;20046;-81
2023/08/02 12:33:53;;;;;;;1.40;1.40;;;17.10;99.90;;;;;;5008860;28;20034;-81
2023/08/02 12:36:29;;;;;;;1.95;1.85;;;17.10;99.90;;;;;;5009497;28;20041;-81
2023/08/02 12:38:56;;;;;;;1.60;1.50;;;17.20;99.90;;;;;;4998286;28;20042;-81
2023/08/02 12:41:23;;;;;;;1.83;1.73;;;17.40;99.90;;;;;;5005364;28;20060;-82
2023/08/02 12:43:48;;;;;;;2.08;1.83;;;17.50;99.90;;;;;;5009144;28;20038;-82